createdAt,value
2022-08-17T00:01:27.243Z,21.03
2022-08-17T00:03:54.599Z,20.99
2022-08-17T00:06:24.894Z,20.95
2022-08-17T00:09:02.098Z,20.92
2022-08-17T00:11:35.979Z,20.87
2022-08-17T00:14:06.561Z,20.83
2022-08-17T00:16:50.518Z,20.81
2022-08-17T00:19:25.610Z,20.77
2022-08-17T00:22:29.540Z,20.72
2022-08-17T00:24:42.450Z,20.65
2022-08-17T00:27:08.881Z,20.58
2022-08-17T00:29:35.290Z,20.59
2022-08-17T00:33:14.245Z,20.59
2022-08-17T00:34:49.979Z,20.56
2022-08-17T00:37:16.722Z,20.53
2022-08-17T00:39:43.213Z,20.49
2022-08-17T00:42:15.339Z,20.47
2022-08-17T00:44:41.761Z,20.43
2022-08-17T00:47:08.287Z,20.39
2022-08-17T00:49:34.703Z,20.38
2022-08-17T00:52:11.783Z,20.35
2022-08-17T00:54:42.480Z,20.18
2022-08-17T00:57:31.133Z,20.31
2022-08-17T01:00:04.988Z,20.25
2022-08-17T01:02:43.017Z,20.18
2022-08-17T01:05:25.429Z,20.09
2022-08-17T01:07:52.964Z,20.08
2022-08-17T01:10:58.384Z,20.14
2022-08-17T01:13:16.127Z,20.10
2022-08-17T01:16:03.258Z,20.10
2022-08-17T01:18:29.774Z,20.05
2022-08-17T01:20:58.943Z,20.01
2022-08-17T01:23:28.818Z,19.99
2022-08-17T01:25:58.117Z,19.95
2022-08-17T01:28:52.490Z,19.93
2022-08-17T01:31:14.869Z,20.05
2022-08-17T01:33:41.334Z,19.92
2022-08-17T01:36:09.218Z,19.85
2022-08-17T01:38:37.231Z,19.84
2022-08-17T01:41:10.666Z,19.70
2022-08-17T01:43:53.927Z,19.76
2022-08-17T01:46:26.962Z,19.77
2022-08-17T01:48:54.555Z,19.75
2022-08-17T01:51:21.620Z,19.74
2022-08-17T01:53:51.901Z,19.68
2022-08-17T01:56:21.268Z,19.67
2022-08-17T01:58:48.695Z,19.66
2022-08-17T02:01:17.146Z,19.63
2022-08-17T02:03:59.102Z,19.58
2022-08-17T02:06:43.982Z,19.59
2022-08-17T02:09:16.618Z,19.56
2022-08-17T02:11:44.363Z,19.54
2022-08-17T02:14:11.983Z,19.51
2022-08-17T02:16:40.576Z,19.49
2022-08-17T02:19:11.275Z,19.47
2022-08-17T02:21:40.382Z,19.43
2022-08-17T02:24:10.912Z,19.29
2022-08-17T02:26:37.846Z,19.41
2022-08-17T02:29:04.530Z,19.39
2022-08-17T02:31:31.113Z,19.39
2022-08-17T02:34:03.695Z,19.37
2022-08-17T02:36:34.883Z,19.37
2022-08-17T02:39:06.807Z,19.33
2022-08-17T02:41:33.751Z,19.35
2022-08-17T02:44:00.353Z,19.21
2022-08-17T02:46:26.914Z,19.21
2022-08-17T02:48:53.357Z,19.32
2022-08-17T02:51:20.031Z,19.28
2022-08-17T02:53:46.830Z,19.28
2022-08-17T02:56:13.664Z,19.25
2022-08-17T02:58:40.269Z,19.27
2022-08-17T03:01:09.684Z,19.24
2022-08-17T03:03:37.971Z,19.24
2022-08-17T03:06:05.854Z,19.23
2022-08-17T03:08:32.298Z,19.24
2022-08-17T03:10:59.016Z,19.11
2022-08-17T03:13:25.475Z,19.20
2022-08-17T03:15:51.886Z,19.22
2022-08-17T03:18:25.264Z,19.21
2022-08-17T03:21:01.597Z,19.21
2022-08-17T03:23:29.620Z,19.18
2022-08-17T03:25:57.275Z,19.12
2022-08-17T03:28:24.672Z,19.15
2022-08-17T03:30:52.372Z,19.13
2022-08-17T03:33:19.962Z,19.12
2022-08-17T03:35:46.550Z,19.10
2022-08-17T03:38:15.900Z,19.07
2022-08-17T03:40:56.674Z,19.06
2022-08-17T03:43:25.223Z,19.04
2022-08-17T03:46:28.810Z,18.94
2022-08-17T03:49:15.436Z,18.98
2022-08-17T03:52:00.383Z,18.86
2022-08-17T03:54:45.630Z,18.93
2022-08-17T03:57:12.445Z,18.92
2022-08-17T03:59:39.440Z,18.89
2022-08-17T04:02:16.198Z,18.81
2022-08-17T04:04:42.664Z,18.85
2022-08-17T04:07:09.739Z,18.89
2022-08-17T04:09:36.655Z,18.87
2022-08-17T04:12:04.793Z,18.89
2022-08-17T04:14:39.201Z,18.89
2022-08-17T04:17:20.023Z,18.88
2022-08-17T04:19:46.634Z,18.91
2022-08-17T04:22:30.204Z,18.91
2022-08-17T04:24:58.772Z,18.89
2022-08-17T04:27:25.428Z,18.91
2022-08-17T04:29:55.113Z,18.94
2022-08-17T04:33:04.290Z,18.94
2022-08-17T04:35:09.795Z,18.97
2022-08-17T04:37:36.190Z,19.00
2022-08-17T04:40:21.629Z,19.03
2022-08-17T04:43:01.332Z,19.09
2022-08-17T04:45:32.063Z,19.21
2022-08-17T04:47:59.808Z,19.09
2022-08-17T04:50:26.467Z,19.15
2022-08-17T04:52:52.856Z,19.18
2022-08-17T04:55:19.296Z,19.21
2022-08-17T04:57:45.785Z,19.22
2022-08-17T05:00:12.747Z,19.30
2022-08-17T05:02:50.611Z,19.36
2022-08-17T05:05:21.833Z,19.26
2022-08-17T05:07:50.727Z,19.40
2022-08-17T05:10:17.405Z,19.45
2022-08-17T05:12:43.817Z,19.56
2022-08-17T05:15:17.621Z,19.62
2022-08-17T05:17:46.817Z,19.71
2022-08-17T05:20:13.239Z,19.78
2022-08-17T05:22:55.641Z,19.89
2022-08-17T05:25:25.783Z,19.88
2022-08-17T05:27:54.789Z,20.03
2022-08-17T05:30:21.829Z,20.11
2022-08-17T05:32:54.252Z,20.23
2022-08-17T05:35:21.710Z,20.32
2022-08-17T05:37:48.244Z,20.38
2022-08-17T05:40:15.135Z,20.52
2022-08-17T05:42:42.078Z,20.61
2022-08-17T05:45:09.936Z,20.69
2022-08-17T05:47:38.888Z,20.88
2022-08-17T05:50:10.311Z,21.01
2022-08-17T05:53:18.891Z,21.15
2022-08-17T05:56:10.914Z,21.28
2022-08-17T05:59:18.861Z,21.40
2022-08-17T06:01:59.655Z,21.51
2022-08-17T06:05:10.866Z,21.67
2022-08-17T06:08:08.897Z,21.89
2022-08-17T06:11:13.072Z,22.07
2022-08-17T06:13:45.150Z,22.18
2022-08-17T06:16:31.118Z,22.31
2022-08-17T06:19:10.092Z,22.48
2022-08-17T06:21:43.040Z,22.62
2022-08-17T06:24:35.445Z,22.79
2022-08-17T06:27:27.519Z,22.91
2022-08-17T06:30:02.097Z,23.06
2022-08-17T06:32:29.238Z,23.05
2022-08-17T06:34:57.403Z,23.28
2022-08-17T06:37:37.324Z,23.45
2022-08-17T06:40:15.968Z,23.55
2022-08-17T06:43:06.637Z,23.70
2022-08-17T06:45:49.212Z,23.81
2022-08-17T06:48:29.077Z,23.95
2022-08-17T06:51:02.493Z,24.06
2022-08-17T06:53:37.008Z,24.19
2022-08-17T06:56:19.718Z,24.18
2022-08-17T06:58:46.797Z,24.45
2022-08-17T07:01:25.100Z,24.60
2022-08-17T07:04:11.563Z,24.74
2022-08-17T07:06:53.111Z,24.81
2022-08-17T07:09:28.708Z,25.03
2022-08-17T07:12:03.210Z,25.15
2022-08-17T07:15:05.332Z,25.35
2022-08-17T07:17:46.636Z,25.34
2022-08-17T07:20:17.878Z,25.55
2022-08-17T07:23:08.843Z,25.76
2022-08-17T07:25:35.314Z,25.85
2022-08-17T07:28:07.024Z,25.98
2022-08-17T07:30:45.849Z,26.06
2022-08-17T07:33:20.087Z,26.16
2022-08-17T07:35:48.253Z,26.33
2022-08-17T07:38:28.229Z,26.51
2022-08-17T07:41:04.824Z,26.64
2022-08-17T07:43:40.643Z,26.86
2022-08-17T07:46:38.149Z,27.02
2022-08-17T07:49:07.545Z,27.15
2022-08-17T07:51:37.830Z,27.28
2022-08-17T07:54:24.713Z,27.50
2022-08-17T07:57:10.362Z,27.62
2022-08-17T07:59:41.266Z,27.80
2022-08-17T08:02:34.342Z,27.99
2022-08-17T08:05:12.883Z,28.21
2022-08-17T08:07:48.294Z,28.41
2022-08-17T08:10:25.162Z,28.56
2022-08-17T08:13:06.474Z,28.61
2022-08-17T08:15:40.700Z,28.83
2022-08-17T08:18:54.369Z,29.06
2022-08-17T08:21:52.093Z,29.22
2022-08-17T08:24:36.630Z,29.29
2022-08-17T08:27:18.863Z,29.43
2022-08-17T08:30:06.146Z,29.54
2022-08-17T08:32:39.590Z,29.70
2022-08-17T08:35:30.828Z,29.81
2022-08-17T08:38:28.535Z,30.03
2022-08-17T08:41:25.442Z,30.17
2022-08-17T08:44:22.048Z,30.23
2022-08-17T08:47:26.483Z,30.31
2022-08-17T08:50:37.232Z,30.44
2022-08-17T08:53:23.525Z,30.47
2022-08-17T08:56:16.396Z,30.60
2022-08-17T08:59:15.945Z,30.67
2022-08-17T09:02:00.843Z,30.94
2022-08-17T09:05:10.644Z,30.82
2022-08-17T09:08:11.036Z,30.92
2022-08-17T09:10:43.353Z,30.94
2022-08-17T09:13:37.005Z,31.10
2022-08-17T09:16:15.255Z,31.16
2022-08-17T09:19:03.352Z,31.27
2022-08-17T09:22:11.997Z,31.58
2022-08-17T09:24:47.278Z,31.70
2022-08-17T09:27:18.424Z,31.97
2022-08-17T09:29:59.708Z,32.31
2022-08-17T09:32:45.780Z,32.69
2022-08-17T09:35:22.857Z,32.94
2022-08-17T09:38:10.677Z,33.22
2022-08-17T09:40:51.458Z,33.53
2022-08-17T09:43:37.402Z,33.78
2022-08-17T09:46:21.812Z,33.96
2022-08-17T09:49:14.913Z,34.14
2022-08-17T09:51:49.564Z,34.21
2022-08-17T09:54:41.758Z,34.33
2022-08-17T09:57:34.756Z,34.35
2022-08-17T10:00:27.172Z,34.79
2022-08-17T10:03:12.149Z,34.90
2022-08-17T10:05:51.172Z,35.07
2022-08-17T10:09:08.230Z,35.21
2022-08-17T10:12:29.783Z,35.48
2022-08-17T10:14:59.951Z,35.37
2022-08-17T10:17:45.572Z,35.49
2022-08-17T10:20:17.949Z,35.65
2022-08-17T10:23:12.935Z,35.52
2022-08-17T10:26:08.998Z,35.52
2022-08-17T10:28:49.925Z,35.56
2022-08-17T10:31:35.460Z,35.43
2022-08-17T10:34:40.360Z,35.44
2022-08-17T10:37:19.674Z,35.28
2022-08-17T10:39:57.303Z,35.25
2022-08-17T10:42:42.626Z,35.14
2022-08-17T10:45:29.433Z,35.15
2022-08-17T10:48:07.499Z,35.06
2022-08-17T10:50:49.310Z,35.09
2022-08-17T10:53:34.870Z,35.11
2022-08-17T10:56:14.085Z,35.02
2022-08-17T10:58:58.914Z,35.05
2022-08-17T11:01:34.486Z,34.93
2022-08-17T11:04:17.584Z,34.96
2022-08-17T11:06:47.336Z,34.86
2022-08-17T11:09:32.494Z,35.19
2022-08-17T11:12:24.127Z,34.92
2022-08-17T11:15:05.063Z,34.92
2022-08-17T11:17:50.224Z,34.93
2022-08-17T11:20:42.979Z,34.84
2022-08-17T11:23:39.927Z,34.91
2022-08-17T11:26:25.887Z,34.93
2022-08-17T11:28:59.479Z,34.88
2022-08-17T11:31:38.891Z,34.90
2022-08-17T11:34:27.456Z,34.78
2022-08-17T11:37:20.663Z,34.96
2022-08-17T11:40:21.364Z,35.07
2022-08-17T11:42:59.935Z,35.10
2022-08-17T11:45:40.112Z,35.21
2022-08-17T11:48:34.476Z,35.27
2022-08-17T11:51:33.868Z,35.46
2022-08-17T11:54:31.299Z,35.42
2022-08-17T11:56:52.865Z,35.45
2022-08-17T11:59:39.932Z,35.52
2022-08-17T12:02:31.732Z,35.51
2022-08-17T12:05:04.784Z,35.41
2022-08-17T12:07:52.796Z,35.67
2022-08-17T12:10:23.655Z,35.20
2022-08-17T12:12:53.191Z,35.25
2022-08-17T12:15:31.246Z,35.24
2022-08-17T12:17:58.761Z,35.15
2022-08-17T12:20:42.077Z,35.23
2022-08-17T12:23:44.202Z,35.30
2022-08-17T12:26:25.025Z,35.27
2022-08-17T12:28:58.750Z,35.29
2022-08-17T12:31:45.415Z,35.29
2022-08-17T12:34:15.929Z,35.19
2022-08-17T12:36:42.812Z,35.12
2022-08-17T12:39:12.979Z,35.02
2022-08-17T12:41:47.839Z,35.08
2022-08-17T12:44:21.122Z,34.91
2022-08-17T12:47:00.499Z,34.99
2022-08-17T12:49:29.497Z,35.22
2022-08-17T12:52:25.588Z,34.92
2022-08-17T12:55:21.254Z,34.80
2022-08-17T12:57:54.183Z,34.60
2022-08-17T13:00:38.076Z,34.54
2022-08-17T13:03:09.474Z,34.39
2022-08-17T13:05:42.878Z,34.28
2022-08-17T13:08:20.063Z,34.12
2022-08-17T13:11:06.148Z,34.19
2022-08-17T13:13:37.071Z,33.91
2022-08-17T13:16:09.481Z,33.90
2022-08-17T13:18:43.654Z,33.83
2022-08-17T13:21:30.310Z,33.82
2022-08-17T13:24:25.934Z,33.69
2022-08-17T13:26:59.201Z,33.60
2022-08-17T13:29:44.148Z,33.41
2022-08-17T13:32:14.112Z,33.41
2022-08-17T13:34:56.149Z,33.19
2022-08-17T13:37:35.117Z,33.27
2022-08-17T13:40:10.834Z,33.30
2022-08-17T13:42:53.164Z,33.28
2022-08-17T13:45:35.024Z,33.25
2022-08-17T13:48:08.531Z,33.20
2022-08-17T13:50:55.483Z,33.22
2022-08-17T13:53:37.961Z,33.14
2022-08-17T13:56:31.674Z,33.04
2022-08-17T13:59:04.729Z,32.98
2022-08-17T14:01:53.564Z,32.98
2022-08-17T14:04:24.486Z,32.96
2022-08-17T14:06:58.879Z,32.82
2022-08-17T14:09:37.165Z,32.84
2022-08-17T14:12:08.614Z,32.80
2022-08-17T14:14:36.310Z,32.71
2022-08-17T14:17:03.171Z,32.50
2022-08-17T14:19:29.675Z,32.62
2022-08-17T14:21:59.017Z,32.67
2022-08-17T14:24:31.251Z,32.65
2022-08-17T14:26:59.971Z,32.63
2022-08-17T14:29:29.035Z,32.59
2022-08-17T14:31:58.447Z,32.50
2022-08-17T14:34:25.459Z,32.48
2022-08-17T14:36:52.326Z,32.45
2022-08-17T14:39:19.448Z,32.35
2022-08-17T14:41:46.329Z,32.53
2022-08-17T14:44:13.221Z,32.59
2022-08-17T14:46:41.213Z,32.66
2022-08-17T14:49:10.767Z,32.63
2022-08-17T14:51:43.869Z,32.80
2022-08-17T14:54:28.755Z,32.82
2022-08-17T14:57:11.523Z,32.77
2022-08-17T14:59:45.172Z,32.87
2022-08-17T15:02:12.964Z,32.87
2022-08-17T15:04:44.892Z,32.88
2022-08-17T15:07:11.894Z,32.88
2022-08-17T15:09:39.049Z,32.88
2022-08-17T15:12:06.671Z,32.85
2022-08-17T15:14:34.304Z,32.83
2022-08-17T15:17:02.082Z,32.81
2022-08-17T15:19:28.540Z,32.82
2022-08-17T15:21:54.998Z,32.81
2022-08-17T15:24:21.422Z,32.81
2022-08-17T15:26:47.967Z,32.80
2022-08-17T15:29:14.627Z,32.80
2022-08-17T15:31:41.136Z,32.89
2022-08-17T15:34:08.128Z,32.89
2022-08-17T15:36:35.823Z,32.89
2022-08-17T15:39:03.116Z,32.95
2022-08-17T15:41:29.874Z,32.96
2022-08-17T15:43:56.439Z,33.11
2022-08-17T15:46:25.607Z,33.20
2022-08-17T15:48:56.552Z,33.33
2022-08-17T15:51:32.018Z,33.44
2022-08-17T15:54:18.767Z,33.63
2022-08-17T15:56:49.210Z,33.54
2022-08-17T15:59:15.747Z,33.59
2022-08-17T16:03:01.359Z,33.52
2022-08-17T16:04:30.811Z,33.43
2022-08-17T16:06:58.685Z,33.32
2022-08-17T16:09:25.096Z,33.16
2022-08-17T16:11:52.170Z,32.98
2022-08-17T16:14:22.328Z,32.89
2022-08-17T16:16:49.633Z,32.80
2022-08-17T16:19:16.210Z,32.63
2022-08-17T16:21:43.349Z,32.44
2022-08-17T16:24:13.344Z,32.34
2022-08-17T16:26:40.435Z,32.20
2022-08-17T16:29:07.768Z,31.95
2022-08-17T16:31:36.072Z,31.87
2022-08-17T16:34:17.176Z,31.83
2022-08-17T16:36:51.836Z,31.78
2022-08-17T16:39:22.538Z,31.56
2022-08-17T16:41:50.234Z,31.53
2022-08-17T16:44:19.834Z,31.58
2022-08-17T16:46:46.892Z,31.79
2022-08-17T16:49:35.574Z,31.52
2022-08-17T16:52:03.118Z,31.41
2022-08-17T16:54:29.570Z,31.31
2022-08-17T16:56:56.006Z,31.25
2022-08-17T16:59:38.744Z,31.16
2022-08-17T17:02:12.546Z,31.08
2022-08-17T17:04:47.988Z,31.01
2022-08-17T17:07:34.133Z,31.07
2022-08-17T17:10:14.683Z,30.99
2022-08-17T17:13:03.267Z,30.91
2022-08-17T17:15:46.146Z,30.93
2022-08-17T17:18:15.325Z,30.89
2022-08-17T17:20:58.227Z,30.94
2022-08-17T17:23:37.112Z,30.93
2022-08-17T17:26:14.041Z,30.92
2022-08-17T17:28:46.315Z,30.82
2022-08-17T17:31:18.053Z,30.75
2022-08-17T17:33:52.515Z,30.70
2022-08-17T17:36:41.884Z,30.60
2022-08-17T17:39:43.900Z,30.55
2022-08-17T17:42:14.476Z,30.33
2022-08-17T17:45:12.410Z,30.27
2022-08-17T17:47:38.911Z,30.07
2022-08-17T17:50:07.205Z,29.92
2022-08-17T17:52:36.526Z,29.75
2022-08-17T17:55:30.902Z,29.73
2022-08-17T17:58:20.700Z,29.56
2022-08-17T18:01:05.199Z,29.42
2022-08-17T18:03:52.966Z,29.27
2022-08-17T18:06:58.047Z,29.21
2022-08-17T18:09:39.491Z,29.04
2022-08-17T18:12:15.928Z,28.90
2022-08-17T18:14:58.278Z,28.76
2022-08-17T18:17:24.737Z,28.63
2022-08-17T18:19:55.281Z,28.57
2022-08-17T18:22:23.545Z,28.44
2022-08-17T18:24:55.841Z,28.38
2022-08-17T18:27:34.597Z,28.33
2022-08-17T18:30:12.473Z,28.17
2022-08-17T18:32:43.693Z,28.15
2022-08-17T18:35:10.207Z,28.07
2022-08-17T18:37:51.797Z,27.96
2022-08-17T18:40:19.455Z,27.83
2022-08-17T18:42:54.871Z,27.66
2022-08-17T18:45:35.896Z,27.37
2022-08-17T18:48:02.924Z,26.85
2022-08-17T18:50:42.171Z,26.30
2022-08-17T18:53:34.178Z,25.90
2022-08-17T18:56:33.374Z,25.46
2022-08-17T18:59:05.588Z,24.95
2022-08-17T19:01:59.985Z,24.60
2022-08-17T19:04:33.360Z,24.23
2022-08-17T19:07:26.249Z,23.96
2022-08-17T19:09:58.246Z,23.73
2022-08-17T19:12:27.131Z,23.50
2022-08-17T19:14:56.863Z,23.23
2022-08-17T19:17:51.153Z,23.14
2022-08-17T19:20:22.621Z,22.99
2022-08-17T19:23:10.801Z,22.93
2022-08-17T19:25:44.383Z,22.84
2022-08-17T19:28:22.254Z,22.75
2022-08-17T19:30:55.268Z,22.70
2022-08-17T19:33:22.134Z,22.68
2022-08-17T19:36:15.851Z,22.69
2022-08-17T19:38:53.004Z,22.64
2022-08-17T19:41:28.329Z,22.62
2022-08-17T19:44:32.148Z,22.64
2022-08-17T19:47:07.642Z,22.60
2022-08-17T19:50:10.639Z,22.51
2022-08-17T19:52:58.214Z,22.55
2022-08-17T19:55:38.771Z,22.53
2022-08-17T19:58:18.347Z,22.51
2022-08-17T20:00:51.255Z,22.51
2022-08-17T20:03:24.765Z,22.45
2022-08-17T20:06:12.560Z,22.43
2022-08-17T20:08:53.881Z,22.49
2022-08-17T20:11:27.867Z,22.48
2022-08-17T20:14:07.670Z,22.47
2022-08-17T20:16:34.242Z,22.47
2022-08-17T20:19:06.482Z,22.47
2022-08-17T20:21:59.542Z,22.50
2022-08-17T20:24:39.077Z,22.33
2022-08-17T20:27:18.310Z,22.40
2022-08-17T20:30:09.292Z,22.50
2022-08-17T20:32:53.362Z,22.44
2022-08-17T20:35:25.357Z,22.46
2022-08-17T20:37:56.437Z,22.45
2022-08-17T20:40:29.874Z,22.43
2022-08-17T20:42:57.157Z,22.43
2022-08-17T20:45:24.367Z,22.42
2022-08-17T20:48:22.127Z,22.42
2022-08-17T20:50:48.155Z,22.38
2022-08-17T20:53:57.675Z,22.32
2022-08-17T20:56:43.013Z,22.44
2022-08-17T20:59:25.767Z,22.39
2022-08-17T21:02:17.478Z,22.37
2022-08-17T21:04:51.256Z,22.33
2022-08-17T21:07:41.043Z,22.33
2022-08-17T21:10:25.567Z,22.32
2022-08-17T21:13:13.303Z,22.32
2022-08-17T21:15:56.087Z,22.27
2022-08-17T21:18:38.788Z,22.26
2022-08-17T21:21:25.894Z,22.23
2022-08-17T21:24:05.489Z,22.17
2022-08-17T21:26:38.960Z,22.16
2022-08-17T21:29:32.315Z,22.05
2022-08-17T21:32:03.374Z,22.13
2022-08-17T21:34:35.965Z,22.12
2022-08-17T21:37:22.009Z,22.15
2022-08-17T21:39:55.161Z,22.10
2022-08-17T21:42:32.442Z,22.08
2022-08-17T21:45:18.060Z,22.08
2022-08-17T21:47:49.918Z,22.04
2022-08-17T21:50:22.899Z,22.01
2022-08-17T21:52:53.941Z,21.97
2022-08-17T21:55:28.660Z,21.96
2022-08-17T21:58:13.552Z,21.88
2022-08-17T22:00:44.182Z,21.91
2022-08-17T22:03:24.267Z,21.90
2022-08-17T22:05:51.253Z,21.90
2022-08-17T22:08:20.962Z,21.63
2022-08-17T22:10:50.693Z,21.86
2022-08-17T22:13:17.691Z,21.87
2022-08-17T22:16:28.000Z,21.89
2022-08-17T22:18:58.488Z,21.73
2022-08-17T22:21:26.350Z,21.65
2022-08-17T22:24:18.066Z,21.85
2022-08-17T22:27:00.041Z,21.85
2022-08-17T22:29:57.019Z,21.86
2022-08-17T22:32:31.509Z,21.81
2022-08-17T22:35:32.656Z,21.83
2022-08-17T22:38:20.719Z,21.80
2022-08-17T22:40:57.466Z,21.70
2022-08-17T22:43:28.399Z,21.68
2022-08-17T22:45:58.982Z,21.65
2022-08-17T22:48:28.063Z,21.40
2022-08-17T22:51:12.325Z,21.41
2022-08-17T22:54:06.215Z,21.49
2022-08-17T22:56:51.558Z,21.40
2022-08-17T22:59:49.426Z,21.39
2022-08-17T23:02:19.473Z,21.27
2022-08-17T23:04:51.308Z,21.35
2022-08-17T23:07:18.984Z,21.18
2022-08-17T23:09:45.822Z,21.10
2022-08-17T23:12:16.537Z,21.01
2022-08-17T23:14:45.636Z,20.94
2022-08-17T23:17:16.308Z,20.93
2022-08-17T23:19:43.114Z,20.89
2022-08-17T23:22:10.600Z,20.83
2022-08-17T23:24:45.974Z,20.80
2022-08-17T23:27:12.774Z,20.77
2022-08-17T23:29:41.993Z,20.59
2022-08-17T23:32:14.581Z,20.70
2022-08-17T23:34:43.761Z,20.58
2022-08-17T23:37:12.043Z,20.64
2022-08-17T23:39:39.683Z,20.61
2022-08-17T23:42:14.980Z,20.57
2022-08-17T23:44:43.665Z,20.37
2022-08-17T23:47:11.131Z,20.47
2022-08-17T23:49:38.663Z,20.48
2022-08-17T23:52:07.846Z,20.46
2022-08-17T23:54:41.413Z,20.48
2022-08-17T23:57:09.153Z,20.41
2022-08-17T23:59:37.185Z,20.36
